sensor_id;sensor_type;location;lat;lon;timestamp;temperature;humidity
46364;DHT22;32071;49.036;9.344;2023-02-01T00:01:50;4.80;99.90
46364;DHT22;32071;49.036;9.344;2023-02-01T00:04:16;4.80;99.90
46364;DHT22;32071;49.036;9.344;2023-02-01T00:06:42;4.80;99.90
46364;DHT22;32071;49.036;9.344;2023-02-01T00:09:07;4.80;99.90
46364;DHT22;32071;49.036;9.344;2023-02-01T00:11:33;4.80;99.90
46364;DHT22;32071;49.036;9.344;2023-02-01T00:13:59;4.80;99.90
46364;DHT22;32071;49.036;9.344;2023-02-01T00:16:27;4.80;99.90
46364;DHT22;32071;49.036;9.344;2023-02-01T00:19:02;4.80;99.90
46364;DHT22;32071;49.036;9.344;2023-02-01T00:21:28;4.80;99.90
46364;DHT22;32071;49.036;9.344;2023-02-01T00:23:54;4.90;99.90
46364;DHT22;32071;49.036;9.344;2023-02-01T00:26:27;4.80;99.90
46364;DHT22;32071;49.036;9.344;2023-02-01T00:28:55;4.80;99.90
46364;DHT22;32071;49.036;9.344;2023-02-01T00:31:21;4.80;99.90
46364;DHT22;32071;49.036;9.344;2023-02-01T00:33:47;4.80;99.90
46364;DHT22;32071;49.036;9.344;2023-02-01T00:36:14;4.80;99.90
46364;DHT22;32071;49.036;9.344;2023-02-01T00:38:39;4.80;99.90
46364;DHT22;32071;49.036;9.344;2023-02-01T00:41:09;4.80;99.90
46364;DHT22;32071;49.036;9.344;2023-02-01T00:43:35;4.80;99.90
46364;DHT22;32071;49.036;9.344;2023-02-01T00:46:00;4.80;99.90
46364;DHT22;32071;49.036;9.344;2023-02-01T00:48:26;4.90;99.90
46364;DHT22;32071;49.036;9.344;2023-02-01T00:50:52;4.90;99.90
46364;DHT22;32071;49.036;9.344;2023-02-01T00:53:17;4.90;99.90
46364;DHT22;32071;49.036;9.344;2023-02-01T00:55:47;4.90;99.90
46364;DHT22;32071;49.036;9.344;2023-02-01T00:58:13;4.90;99.90
46364;DHT22;32071;49.036;9.344;2023-02-01T01:00:39;4.80;99.90
46364;DHT22;32071;49.036;9.344;2023-02-01T01:03:05;4.90;99.90
46364;DHT22;32071;49.036;9.344;2023-02-01T01:05:44;4.90;99.90
46364;DHT22;32071;49.036;9.344;2023-02-01T01:08:10;4.90;99.90
46364;DHT22;32071;49.036;9.344;2023-02-01T01:10:35;4.90;99.90
46364;DHT22;32071;49.036;9.344;2023-02-01T01:13:01;4.90;99.90
46364;DHT22;32071;49.036;9.344;2023-02-01T01:15:26;4.90;99.90
46364;DHT22;32071;49.036;9.344;2023-02-01T01:17:52;4.90;99.90
46364;DHT22;32071;49.036;9.344;2023-02-01T01:20:17;4.90;99.90
46364;DHT22;32071;49.036;9.344;2023-02-01T01:22:43;4.90;99.90
46364;DHT22;32071;49.036;9.344;2023-02-01T01:25:08;4.90;99.90
46364;DHT22;32071;49.036;9.344;2023-02-01T01:27:34;4.90;99.90
46364;DHT22;32071;49.036;9.344;2023-02-01T01:29:59;4.90;99.90
46364;DHT22;32071;49.036;9.344;2023-02-01T01:32:25;4.90;99.90
46364;DHT22;32071;49.036;9.344;2023-02-01T01:34:51;4.90;99.90
46364;DHT22;32071;49.036;9.344;2023-02-01T01:37:16;4.90;99.90
46364;DHT22;32071;49.036;9.344;2023-02-01T01:39:42;4.90;99.90
46364;DHT22;32071;49.036;9.344;2023-02-01T01:42:10;5.00;99.90
46364;DHT22;32071;49.036;9.344;2023-02-01T01:45:03;5.00;99.90
46364;DHT22;32071;49.036;9.344;2023-02-01T01:47:43;5.00;99.90
46364;DHT22;32071;49.036;9.344;2023-02-01T01:50:13;5.00;99.90
46364;DHT22;32071;49.036;9.344;2023-02-01T01:52:41;5.00;99.90
46364;DHT22;32071;49.036;9.344;2023-02-01T01:55:09;5.10;99.90
46364;DHT22;32071;49.036;9.344;2023-02-01T01:57:38;5.10;99.90
46364;DHT22;32071;49.036;9.344;2023-02-01T02:00:07;5.00;99.90
46364;DHT22;32071;49.036;9.344;2023-02-01T02:02:33;5.00;99.90
46364;DHT22;32071;49.036;9.344;2023-02-01T02:04:58;4.90;99.90
46364;DHT22;32071;49.036;9.344;2023-02-01T02:07:30;4.90;99.90
46364;DHT22;32071;49.036;9.344;2023-02-01T02:09:57;4.90;99.90
46364;DHT22;32071;49.036;9.344;2023-02-01T02:12:23;5.00;99.90
46364;DHT22;32071;49.036;9.344;2023-02-01T02:14:49;5.00;99.90
46364;DHT22;32071;49.036;9.344;2023-02-01T02:28:29;5.00;99.90
46364;DHT22;32071;49.036;9.344;2023-02-01T02:31:24;5.00;99.90
46364;DHT22;32071;49.036;9.344;2023-02-01T02:34:12;5.00;99.90
46364;DHT22;32071;49.036;9.344;2023-02-01T02:39:45;5.00;99.90
46364;DHT22;32071;49.036;9.344;2023-02-01T02:42:37;5.00;99.90
46364;DHT22;32071;49.036;9.344;2023-02-01T02:45:30;5.00;99.90
46364;DHT22;32071;49.036;9.344;2023-02-01T02:48:24;5.00;99.90
46364;DHT22;32071;49.036;9.344;2023-02-01T02:56:35;5.00;99.90
46364;DHT22;32071;49.036;9.344;2023-02-01T02:59:22;5.00;99.90
46364;DHT22;32071;49.036;9.344;2023-02-01T03:02:09;5.10;99.90
46364;DHT22;32071;49.036;9.344;2023-02-01T03:04:54;5.00;99.90
46364;DHT22;32071;49.036;9.344;2023-02-01T03:13:08;5.10;99.90
46364;DHT22;32071;49.036;9.344;2023-02-01T03:18:48;5.00;99.90
46364;DHT22;32071;49.036;9.344;2023-02-01T03:21:21;5.00;99.90
46364;DHT22;32071;49.036;9.344;2023-02-01T03:23:48;5.00;99.90
46364;DHT22;32071;49.036;9.344;2023-02-01T03:26:17;5.00;99.90
46364;DHT22;32071;49.036;9.344;2023-02-01T03:28:54;4.90;99.90
46364;DHT22;32071;49.036;9.344;2023-02-01T03:31:22;4.90;99.90
46364;DHT22;32071;49.036;9.344;2023-02-01T03:33:48;5.00;99.90
46364;DHT22;32071;49.036;9.344;2023-02-01T03:36:26;5.00;99.90
46364;DHT22;32071;49.036;9.344;2023-02-01T03:39:23;5.00;99.90
46364;DHT22;32071;49.036;9.344;2023-02-01T03:41:56;5.00;99.90
46364;DHT22;32071;49.036;9.344;2023-02-01T03:44:39;5.00;99.90
46364;DHT22;32071;49.036;9.344;2023-02-01T03:47:21;5.00;99.90
46364;DHT22;32071;49.036;9.344;2023-02-01T03:50:09;5.00;99.90
46364;DHT22;32071;49.036;9.344;2023-02-01T03:52:44;5.00;99.90
46364;DHT22;32071;49.036;9.344;2023-02-01T03:55:13;5.00;99.90
46364;DHT22;32071;49.036;9.344;2023-02-01T03:57:45;5.00;99.90
46364;DHT22;32071;49.036;9.344;2023-02-01T04:02:43;5.00;99.90
46364;DHT22;32071;49.036;9.344;2023-02-01T04:05:09;5.10;99.90
46364;DHT22;32071;49.036;9.344;2023-02-01T04:07:34;5.10;99.90
46364;DHT22;32071;49.036;9.344;2023-02-01T04:10:00;5.10;99.90
46364;DHT22;32071;49.036;9.344;2023-02-01T04:12:25;5.10;99.90
46364;DHT22;32071;49.036;9.344;2023-02-01T04:14:51;5.10;99.90
46364;DHT22;32071;49.036;9.344;2023-02-01T04:17:16;5.10;99.90
46364;DHT22;32071;49.036;9.344;2023-02-01T04:19:42;5.10;99.90
46364;DHT22;32071;49.036;9.344;2023-02-01T04:22:08;5.20;99.90
46364;DHT22;32071;49.036;9.344;2023-02-01T04:24:33;5.20;99.90
46364;DHT22;32071;49.036;9.344;2023-02-01T04:26:59;5.20;99.90
46364;DHT22;32071;49.036;9.344;2023-02-01T04:29:24;5.20;99.90
46364;DHT22;32071;49.036;9.344;2023-02-01T04:31:50;5.20;99.90
46364;DHT22;32071;49.036;9.344;2023-02-01T04:34:15;5.20;99.90
46364;DHT22;32071;49.036;9.344;2023-02-01T04:36:41;5.20;99.90
46364;DHT22;32071;49.036;9.344;2023-02-01T04:39:09;5.30;99.90
46364;DHT22;32071;49.036;9.344;2023-02-01T04:41:34;5.30;99.90
46364;DHT22;32071;49.036;9.344;2023-02-01T04:44:00;5.30;99.90
46364;DHT22;32071;49.036;9.344;2023-02-01T04:46:25;5.30;99.90
46364;DHT22;32071;49.036;9.344;2023-02-01T04:48:51;5.30;99.90
46364;DHT22;32071;49.036;9.344;2023-02-01T04:51:16;5.30;99.90
46364;DHT22;32071;49.036;9.344;2023-02-01T04:53:43;5.30;99.90
46364;DHT22;32071;49.036;9.344;2023-02-01T04:56:09;5.30;99.90
46364;DHT22;32071;49.036;9.344;2023-02-01T04:58:35;5.30;99.90
46364;DHT22;32071;49.036;9.344;2023-02-01T05:01:05;5.30;99.90
46364;DHT22;32071;49.036;9.344;2023-02-01T05:03:34;5.30;99.90
46364;DHT22;32071;49.036;9.344;2023-02-01T05:06:00;5.30;99.90
46364;DHT22;32071;49.036;9.344;2023-02-01T05:08:27;5.40;99.90
46364;DHT22;32071;49.036;9.344;2023-02-01T05:10:54;5.30;99.90
46364;DHT22;32071;49.036;9.344;2023-02-01T05:13:19;5.30;99.90
46364;DHT22;32071;49.036;9.344;2023-02-01T05:16:03;5.40;99.90
46364;DHT22;32071;49.036;9.344;2023-02-01T05:18:29;5.30;99.90
46364;DHT22;32071;49.036;9.344;2023-02-01T05:20:55;5.30;99.90
46364;DHT22;32071;49.036;9.344;2023-02-01T05:23:20;5.40;99.90
46364;DHT22;32071;49.036;9.344;2023-02-01T05:25:46;5.30;99.90
46364;DHT22;32071;49.036;9.344;2023-02-01T05:28:11;5.30;99.90
46364;DHT22;32071;49.036;9.344;2023-02-01T05:30:37;5.40;99.90
46364;DHT22;32071;49.036;9.344;2023-02-01T05:33:03;5.30;99.90
46364;DHT22;32071;49.036;9.344;2023-02-01T05:35:28;5.30;99.90
46364;DHT22;32071;49.036;9.344;2023-02-01T05:37:54;5.30;99.90
46364;DHT22;32071;49.036;9.344;2023-02-01T05:40:20;5.30;99.90
46364;DHT22;32071;49.036;9.344;2023-02-01T05:42:46;5.30;99.90
46364;DHT22;32071;49.036;9.344;2023-02-01T05:45:11;5.30;99.90
46364;DHT22;32071;49.036;9.344;2023-02-01T05:47:37;5.30;99.90
46364;DHT22;32071;49.036;9.344;2023-02-01T05:50:04;5.40;99.90
46364;DHT22;32071;49.036;9.344;2023-02-01T05:52:29;5.30;99.90
46364;DHT22;32071;49.036;9.344;2023-02-01T05:54:55;5.30;99.90
46364;DHT22;32071;49.036;9.344;2023-02-01T05:57:21;5.30;99.90
46364;DHT22;32071;49.036;9.344;2023-02-01T05:59:46;5.30;99.90
46364;DHT22;32071;49.036;9.344;2023-02-01T06:02:14;5.30;99.90
46364;DHT22;32071;49.036;9.344;2023-02-01T06:04:40;5.30;99.90
46364;DHT22;32071;49.036;9.344;2023-02-01T06:07:07;5.30;99.90
46364;DHT22;32071;49.036;9.344;2023-02-01T06:09:34;5.30;99.90
46364;DHT22;32071;49.036;9.344;2023-02-01T06:12:00;5.30;99.90
46364;DHT22;32071;49.036;9.344;2023-02-01T06:14:26;5.30;99.90
46364;DHT22;32071;49.036;9.344;2023-02-01T06:16:53;5.30;99.90
46364;DHT22;32071;49.036;9.344;2023-02-01T06:19:18;5.30;99.90
46364;DHT22;32071;49.036;9.344;2023-02-01T06:21:44;5.30;99.90
46364;DHT22;32071;49.036;9.344;2023-02-01T06:24:10;5.30;99.90
46364;DHT22;32071;49.036;9.344;2023-02-01T06:26:36;5.30;99.90
46364;DHT22;32071;49.036;9.344;2023-02-01T06:29:01;5.30;99.90
46364;DHT22;32071;49.036;9.344;2023-02-01T06:31:27;5.30;99.90
46364;DHT22;32071;49.036;9.344;2023-02-01T06:33:52;5.30;99.90
46364;DHT22;32071;49.036;9.344;2023-02-01T06:36:19;5.20;99.90
46364;DHT22;32071;49.036;9.344;2023-02-01T06:38:47;5.20;99.90
46364;DHT22;32071;49.036;9.344;2023-02-01T06:41:13;5.20;99.90
46364;DHT22;32071;49.036;9.344;2023-02-01T06:43:38;5.20;99.90
46364;DHT22;32071;49.036;9.344;2023-02-01T06:46:07;5.30;99.90
46364;DHT22;32071;49.036;9.344;2023-02-01T06:48:33;5.30;99.90
46364;DHT22;32071;49.036;9.344;2023-02-01T06:50:59;5.30;99.90
46364;DHT22;32071;49.036;9.344;2023-02-01T06:53:25;5.30;99.90
46364;DHT22;32071;49.036;9.344;2023-02-01T06:55:57;5.30;99.90
46364;DHT22;32071;49.036;9.344;2023-02-01T06:58:23;5.30;99.90
46364;DHT22;32071;49.036;9.344;2023-02-01T07:00:49;5.20;99.90
46364;DHT22;32071;49.036;9.344;2023-02-01T07:03:16;5.20;99.90
46364;DHT22;32071;49.036;9.344;2023-02-01T07:05:41;5.20;99.90
46364;DHT22;32071;49.036;9.344;2023-02-01T07:08:07;5.20;99.90
46364;DHT22;32071;49.036;9.344;2023-02-01T07:10:34;5.30;99.90
46364;DHT22;32071;49.036;9.344;2023-02-01T07:13:00;5.30;99.90
46364;DHT22;32071;49.036;9.344;2023-02-01T07:15:25;5.30;99.90
46364;DHT22;32071;49.036;9.344;2023-02-01T07:17:53;5.30;99.90
46364;DHT22;32071;49.036;9.344;2023-02-01T07:20:19;5.30;99.90
46364;DHT22;32071;49.036;9.344;2023-02-01T07:22:44;5.30;99.90
46364;DHT22;32071;49.036;9.344;2023-02-01T07:25:10;5.30;99.90
46364;DHT22;32071;49.036;9.344;2023-02-01T07:27:35;5.30;99.90
46364;DHT22;32071;49.036;9.344;2023-02-01T07:30:01;5.40;99.90
46364;DHT22;32071;49.036;9.344;2023-02-01T07:32:28;5.40;99.90
46364;DHT22;32071;49.036;9.344;2023-02-01T07:34:54;5.40;99.90
46364;DHT22;32071;49.036;9.344;2023-02-01T07:37:20;5.40;99.90
46364;DHT22;32071;49.036;9.344;2023-02-01T07:39:45;5.30;99.90
46364;DHT22;32071;49.036;9.344;2023-02-01T07:42:11;5.30;99.90
46364;DHT22;32071;49.036;9.344;2023-02-01T07:44:36;5.30;99.90
46364;DHT22;32071;49.036;9.344;2023-02-01T07:47:02;5.30;99.90
46364;DHT22;32071;49.036;9.344;2023-02-01T07:49:28;5.40;99.90
46364;DHT22;32071;49.036;9.344;2023-02-01T07:51:53;5.40;99.90
46364;DHT22;32071;49.036;9.344;2023-02-01T07:54:19;5.40;99.90
46364;DHT22;32071;49.036;9.344;2023-02-01T07:56:44;5.40;99.90
46364;DHT22;32071;49.036;9.344;2023-02-01T07:59:10;5.30;99.90
46364;DHT22;32071;49.036;9.344;2023-02-01T08:01:37;5.20;99.90
46364;DHT22;32071;49.036;9.344;2023-02-01T08:04:03;5.10;99.90
46364;DHT22;32071;49.036;9.344;2023-02-01T08:06:33;5.00;99.90
46364;DHT22;32071;49.036;9.344;2023-02-01T08:09:00;5.00;99.90
46364;DHT22;32071;49.036;9.344;2023-02-01T08:11:26;5.00;99.90
46364;DHT22;32071;49.036;9.344;2023-02-01T08:13:52;5.00;99.90
46364;DHT22;32071;49.036;9.344;2023-02-01T08:16:19;5.00;99.90
46364;DHT22;32071;49.036;9.344;2023-02-01T08:18:45;5.00;99.90
46364;DHT22;32071;49.036;9.344;2023-02-01T08:21:13;5.00;99.90
46364;DHT22;32071;49.036;9.344;2023-02-01T08:23:40;5.10;99.90
46364;DHT22;32071;49.036;9.344;2023-02-01T08:26:24;5.10;99.90
46364;DHT22;32071;49.036;9.344;2023-02-01T08:28:54;5.10;99.90
46364;DHT22;32071;49.036;9.344;2023-02-01T08:31:22;5.20;99.90
46364;DHT22;32071;49.036;9.344;2023-02-01T08:33:50;5.30;99.90
46364;DHT22;32071;49.036;9.344;2023-02-01T08:36:16;5.40;99.90
46364;DHT22;32071;49.036;9.344;2023-02-01T08:38:42;5.40;99.90
46364;DHT22;32071;49.036;9.344;2023-02-01T08:41:12;5.40;99.90
46364;DHT22;32071;49.036;9.344;2023-02-01T08:43:39;5.30;99.90
46364;DHT22;32071;49.036;9.344;2023-02-01T08:46:05;5.40;99.90
46364;DHT22;32071;49.036;9.344;2023-02-01T08:48:31;5.40;99.90
46364;DHT22;32071;49.036;9.344;2023-02-01T08:50:57;5.30;99.90
46364;DHT22;32071;49.036;9.344;2023-02-01T08:53:26;5.40;99.90
46364;DHT22;32071;49.036;9.344;2023-02-01T08:55:51;5.40;99.90
46364;DHT22;32071;49.036;9.344;2023-02-01T08:58:17;5.40;99.90
46364;DHT22;32071;49.036;9.344;2023-02-01T09:00:43;5.50;99.90
46364;DHT22;32071;49.036;9.344;2023-02-01T09:03:11;5.50;99.90
46364;DHT22;32071;49.036;9.344;2023-02-01T09:05:37;5.60;99.90
46364;DHT22;32071;49.036;9.344;2023-02-01T09:08:03;5.60;99.90
46364;DHT22;32071;49.036;9.344;2023-02-01T09:10:29;5.60;99.90
46364;DHT22;32071;49.036;9.344;2023-02-01T09:12:55;5.70;99.90
46364;DHT22;32071;49.036;9.344;2023-02-01T09:15:20;5.70;99.90
46364;DHT22;32071;49.036;9.344;2023-02-01T09:17:46;5.70;99.90
46364;DHT22;32071;49.036;9.344;2023-02-01T09:20:12;5.80;99.90
46364;DHT22;32071;49.036;9.344;2023-02-01T09:22:38;5.80;99.90
46364;DHT22;32071;49.036;9.344;2023-02-01T09:25:04;5.90;99.90
46364;DHT22;32071;49.036;9.344;2023-02-01T09:27:30;5.90;99.90
46364;DHT22;32071;49.036;9.344;2023-02-01T09:29:55;6.00;99.90
46364;DHT22;32071;49.036;9.344;2023-02-01T09:32:22;6.00;99.90
46364;DHT22;32071;49.036;9.344;2023-02-01T09:34:49;6.10;99.90
46364;DHT22;32071;49.036;9.344;2023-02-01T09:37:15;6.10;99.90
46364;DHT22;32071;49.036;9.344;2023-02-01T09:39:41;6.20;99.90
46364;DHT22;32071;49.036;9.344;2023-02-01T09:44:59;6.20;99.90
46364;DHT22;32071;49.036;9.344;2023-02-01T09:47:26;6.20;99.90
46364;DHT22;32071;49.036;9.344;2023-02-01T09:50:09;6.10;99.90
46364;DHT22;32071;49.036;9.344;2023-02-01T09:52:59;6.00;99.90
46364;DHT22;32071;49.036;9.344;2023-02-01T09:55:48;5.90;99.90
46364;DHT22;32071;49.036;9.344;2023-02-01T10:00:57;5.90;99.90
46364;DHT22;32071;49.036;9.344;2023-02-01T10:03:26;5.90;99.90
46364;DHT22;32071;49.036;9.344;2023-02-01T10:08:39;6.10;99.90
46364;DHT22;32071;49.036;9.344;2023-02-01T10:11:39;6.10;99.90
46364;DHT22;32071;49.036;9.344;2023-02-01T10:19:57;6.20;99.90
46364;DHT22;32071;49.036;9.344;2023-02-01T10:25:27;6.20;99.90
46364;DHT22;32071;49.036;9.344;2023-02-01T10:27:54;6.30;99.90
46364;DHT22;32071;49.036;9.344;2023-02-01T10:30:24;6.30;99.90
46364;DHT22;32071;49.036;9.344;2023-02-01T10:35:45;6.30;99.90
46364;DHT22;32071;49.036;9.344;2023-02-01T10:38:27;6.40;99.90
46364;DHT22;32071;49.036;9.344;2023-02-01T10:41:16;6.40;99.90
46364;DHT22;32071;49.036;9.344;2023-02-01T10:43:43;6.40;99.90
46364;DHT22;32071;49.036;9.344;2023-02-01T10:46:09;6.40;99.90
46364;DHT22;32071;49.036;9.344;2023-02-01T10:48:36;6.40;99.90
46364;DHT22;32071;49.036;9.344;2023-02-01T10:51:28;6.40;99.90
46364;DHT22;32071;49.036;9.344;2023-02-01T10:53:58;6.40;99.90
46364;DHT22;32071;49.036;9.344;2023-02-01T10:56:27;6.40;99.90
46364;DHT22;32071;49.036;9.344;2023-02-01T10:59:02;6.40;99.90
46364;DHT22;32071;49.036;9.344;2023-02-01T11:01:31;6.40;99.90
46364;DHT22;32071;49.036;9.344;2023-02-01T11:04:00;6.40;99.90
46364;DHT22;32071;49.036;9.344;2023-02-01T11:07:20;6.40;99.90
46364;DHT22;32071;49.036;9.344;2023-02-01T11:09:21;6.50;99.90
46364;DHT22;32071;49.036;9.344;2023-02-01T11:14:15;6.70;99.90
46364;DHT22;32071;49.036;9.344;2023-02-01T11:16:48;6.80;99.90
46364;DHT22;32071;49.036;9.344;2023-02-01T11:19:16;6.80;99.90
46364;DHT22;32071;49.036;9.344;2023-02-01T11:21:43;6.80;99.90
46364;DHT22;32071;49.036;9.344;2023-02-01T11:24:23;6.70;99.90
46364;DHT22;32071;49.036;9.344;2023-02-01T11:26:50;6.70;99.90
46364;DHT22;32071;49.036;9.344;2023-02-01T11:29:19;6.60;99.90
46364;DHT22;32071;49.036;9.344;2023-02-01T11:31:49;6.50;99.90
46364;DHT22;32071;49.036;9.344;2023-02-01T11:34:17;6.50;99.90
46364;DHT22;32071;49.036;9.344;2023-02-01T11:36:49;6.50;99.90
46364;DHT22;32071;49.036;9.344;2023-02-01T11:44:35;6.70;99.90
46364;DHT22;32071;49.036;9.344;2023-02-01T11:47:27;6.70;99.90
46364;DHT22;32071;49.036;9.344;2023-02-01T11:49:59;6.70;99.90
46364;DHT22;32071;49.036;9.344;2023-02-01T11:58:46;6.60;99.90
46364;DHT22;32071;49.036;9.344;2023-02-01T12:36:18;6.60;99.90
46364;DHT22;32071;49.036;9.344;2023-02-01T12:39:22;6.50;99.90
46364;DHT22;32071;49.036;9.344;2023-02-01T12:44:59;6.50;99.90
46364;DHT22;32071;49.036;9.344;2023-02-01T12:47:44;6.40;99.90
46364;DHT22;32071;49.036;9.344;2023-02-01T12:52:52;6.40;99.90
46364;DHT22;32071;49.036;9.344;2023-02-01T13:00:54;6.50;99.90
46364;DHT22;32071;49.036;9.344;2023-02-01T13:03:36;6.50;99.90
46364;DHT22;32071;49.036;9.344;2023-02-01T13:06:13;6.60;99.90
46364;DHT22;32071;49.036;9.344;2023-02-01T13:11:44;6.60;99.90
46364;DHT22;32071;49.036;9.344;2023-02-01T13:16:48;6.60;99.90
46364;DHT22;32071;49.036;9.344;2023-02-01T13:19:28;6.50;99.90
46364;DHT22;32071;49.036;9.344;2023-02-01T13:22:06;6.50;99.90
46364;DHT22;32071;49.036;9.344;2023-02-01T13:24:47;6.50;99.90
46364;DHT22;32071;49.036;9.344;2023-02-01T13:27:16;6.50;99.90
46364;DHT22;32071;49.036;9.344;2023-02-01T13:30:07;6.50;99.90
46364;DHT22;32071;49.036;9.344;2023-02-01T13:33:18;6.50;99.90
46364;DHT22;32071;49.036;9.344;2023-02-01T13:41:35;6.60;99.90
46364;DHT22;32071;49.036;9.344;2023-02-01T13:44:08;6.60;99.90
46364;DHT22;32071;49.036;9.344;2023-02-01T13:46:44;6.60;99.90
46364;DHT22;32071;49.036;9.344;2023-02-01T13:49:26;6.60;99.90
46364;DHT22;32071;49.036;9.344;2023-02-01T13:51:55;6.60;99.90
46364;DHT22;32071;49.036;9.344;2023-02-01T13:54:28;6.50;99.90
46364;DHT22;32071;49.036;9.344;2023-02-01T13:56:54;6.50;99.90
46364;DHT22;32071;49.036;9.344;2023-02-01T14:05:01;6.30;99.90
46364;DHT22;32071;49.036;9.344;2023-02-01T14:07:26;6.30;99.90
46364;DHT22;32071;49.036;9.344;2023-02-01T14:09:52;6.30;99.90
46364;DHT22;32071;49.036;9.344;2023-02-01T14:12:48;6.20;99.90
46364;DHT22;32071;49.036;9.344;2023-02-01T14:15:33;6.20;99.90
46364;DHT22;32071;49.036;9.344;2023-02-01T14:17:58;6.30;99.90
46364;DHT22;32071;49.036;9.344;2023-02-01T14:20:40;6.30;99.90
46364;DHT22;32071;49.036;9.344;2023-02-01T14:23:15;6.30;99.90
46364;DHT22;32071;49.036;9.344;2023-02-01T14:25:42;6.30;99.90
46364;DHT22;32071;49.036;9.344;2023-02-01T14:28:19;6.30;99.90
46364;DHT22;32071;49.036;9.344;2023-02-01T14:30:48;6.40;99.90
46364;DHT22;32071;49.036;9.344;2023-02-01T14:33:32;6.30;99.90
46364;DHT22;32071;49.036;9.344;2023-02-01T14:36:04;6.30;99.90
46364;DHT22;32071;49.036;9.344;2023-02-01T14:38:32;6.30;99.90
46364;DHT22;32071;49.036;9.344;2023-02-01T14:41:32;6.30;99.90
46364;DHT22;32071;49.036;9.344;2023-02-01T14:52:18;6.20;99.90
46364;DHT22;32071;49.036;9.344;2023-02-01T14:54:56;6.20;99.90
46364;DHT22;32071;49.036;9.344;2023-02-01T14:57:25;6.10;99.90
46364;DHT22;32071;49.036;9.344;2023-02-01T15:00:07;6.10;99.90
46364;DHT22;32071;49.036;9.344;2023-02-01T15:02:35;6.10;99.90
46364;DHT22;32071;49.036;9.344;2023-02-01T15:05:01;6.10;99.90
46364;DHT22;32071;49.036;9.344;2023-02-01T15:07:27;6.00;99.90
46364;DHT22;32071;49.036;9.344;2023-02-01T15:09:57;6.10;99.90
46364;DHT22;32071;49.036;9.344;2023-02-01T15:12:25;6.00;99.90
46364;DHT22;32071;49.036;9.344;2023-02-01T15:15:13;6.00;99.90
46364;DHT22;32071;49.036;9.344;2023-02-01T15:17:40;6.00;99.90
46364;DHT22;32071;49.036;9.344;2023-02-01T15:20:38;6.10;99.90
46364;DHT22;32071;49.036;9.344;2023-02-01T15:23:05;6.00;99.90
46364;DHT22;32071;49.036;9.344;2023-02-01T15:25:37;6.10;99.90
46364;DHT22;32071;49.036;9.344;2023-02-01T15:28:04;6.10;99.90
46364;DHT22;32071;49.036;9.344;2023-02-01T15:30:33;6.10;99.90
46364;DHT22;32071;49.036;9.344;2023-02-01T15:36:30;6.10;99.90
46364;DHT22;32071;49.036;9.344;2023-02-01T15:41:56;6.10;99.90
46364;DHT22;32071;49.036;9.344;2023-02-01T15:44:36;6.10;99.90
46364;DHT22;32071;49.036;9.344;2023-02-01T15:47:15;6.10;99.90
46364;DHT22;32071;49.036;9.344;2023-02-01T15:49:44;6.00;99.90
46364;DHT22;32071;49.036;9.344;2023-02-01T15:52:39;6.00;99.90
46364;DHT22;32071;49.036;9.344;2023-02-01T15:55:17;6.00;99.90
46364;DHT22;32071;49.036;9.344;2023-02-01T15:57:43;6.00;99.90
46364;DHT22;32071;49.036;9.344;2023-02-01T16:00:34;6.00;99.90
46364;DHT22;32071;49.036;9.344;2023-02-01T16:03:25;6.00;99.90
46364;DHT22;32071;49.036;9.344;2023-02-01T16:09:20;6.00;99.90
46364;DHT22;32071;49.036;9.344;2023-02-01T16:14:23;6.10;99.90
46364;DHT22;32071;49.036;9.344;2023-02-01T16:16:50;6.10;99.90
46364;DHT22;32071;49.036;9.344;2023-02-01T16:19:15;6.10;99.90
46364;DHT22;32071;49.036;9.344;2023-02-01T16:21:41;6.10;99.90
46364;DHT22;32071;49.036;9.344;2023-02-01T16:24:07;6.10;99.90
46364;DHT22;32071;49.036;9.344;2023-02-01T16:26:33;6.10;99.90
46364;DHT22;32071;49.036;9.344;2023-02-01T16:28:59;6.10;99.90
46364;DHT22;32071;49.036;9.344;2023-02-01T16:31:30;6.10;99.90
46364;DHT22;32071;49.036;9.344;2023-02-01T16:33:56;6.10;99.90
46364;DHT22;32071;49.036;9.344;2023-02-01T16:36:22;6.10;99.90
46364;DHT22;32071;49.036;9.344;2023-02-01T16:38:49;6.10;99.90
46364;DHT22;32071;49.036;9.344;2023-02-01T16:41:17;6.00;99.90
46364;DHT22;32071;49.036;9.344;2023-02-01T16:43:43;6.00;99.90
46364;DHT22;32071;49.036;9.344;2023-02-01T16:46:14;5.90;99.90
46364;DHT22;32071;49.036;9.344;2023-02-01T16:48:42;5.90;99.90
46364;DHT22;32071;49.036;9.344;2023-02-01T16:51:13;5.90;99.90
46364;DHT22;32071;49.036;9.344;2023-02-01T16:53:39;5.90;99.90
46364;DHT22;32071;49.036;9.344;2023-02-01T16:58:40;5.90;99.90
46364;DHT22;32071;49.036;9.344;2023-02-01T17:08:09;5.90;99.90
46364;DHT22;32071;49.036;9.344;2023-02-01T17:10:35;5.90;99.90
46364;DHT22;32071;49.036;9.344;2023-02-01T17:13:01;5.90;99.90
46364;DHT22;32071;49.036;9.344;2023-02-01T17:15:30;5.90;99.90
46364;DHT22;32071;49.036;9.344;2023-02-01T17:17:56;6.00;99.90
46364;DHT22;32071;49.036;9.344;2023-02-01T17:20:24;6.00;99.90
46364;DHT22;32071;49.036;9.344;2023-02-01T17:22:52;6.00;99.90
46364;DHT22;32071;49.036;9.344;2023-02-01T17:25:19;6.00;99.90
46364;DHT22;32071;49.036;9.344;2023-02-01T17:27:47;6.00;99.90
46364;DHT22;32071;49.036;9.344;2023-02-01T17:30:13;6.00;99.90
46364;DHT22;32071;49.036;9.344;2023-02-01T17:32:39;6.00;99.90
46364;DHT22;32071;49.036;9.344;2023-02-01T17:35:09;6.00;99.90
46364;DHT22;32071;49.036;9.344;2023-02-01T17:37:37;6.00;99.90
46364;DHT22;32071;49.036;9.344;2023-02-01T17:40:03;6.00;99.90
46364;DHT22;32071;49.036;9.344;2023-02-01T17:42:29;6.10;99.90
46364;DHT22;32071;49.036;9.344;2023-02-01T17:44:58;6.00;99.90
46364;DHT22;32071;49.036;9.344;2023-02-01T17:47:24;6.10;99.90
46364;DHT22;32071;49.036;9.344;2023-02-01T17:49:50;6.10;99.90
46364;DHT22;32071;49.036;9.344;2023-02-01T17:52:21;6.10;99.90
46364;DHT22;32071;49.036;9.344;2023-02-01T17:54:47;6.10;99.90
46364;DHT22;32071;49.036;9.344;2023-02-01T17:57:15;6.10;99.90
46364;DHT22;32071;49.036;9.344;2023-02-01T17:59:42;6.10;99.90
46364;DHT22;32071;49.036;9.344;2023-02-01T18:04:50;6.10;99.90
46364;DHT22;32071;49.036;9.344;2023-02-01T18:07:16;6.10;99.90
46364;DHT22;32071;49.036;9.344;2023-02-01T18:09:42;6.10;99.90
46364;DHT22;32071;49.036;9.344;2023-02-01T18:12:22;6.10;99.90
46364;DHT22;32071;49.036;9.344;2023-02-01T18:14:49;6.00;99.90
46364;DHT22;32071;49.036;9.344;2023-02-01T18:17:15;6.10;99.90
46364;DHT22;32071;49.036;9.344;2023-02-01T18:19:40;6.10;99.90
46364;DHT22;32071;49.036;9.344;2023-02-01T18:22:14;6.10;99.90
46364;DHT22;32071;49.036;9.344;2023-02-01T18:24:40;6.10;99.90
46364;DHT22;32071;49.036;9.344;2023-02-01T18:27:06;6.10;99.90
46364;DHT22;32071;49.036;9.344;2023-02-01T18:29:32;6.00;99.90
46364;DHT22;32071;49.036;9.344;2023-02-01T18:31:58;6.00;99.90
46364;DHT22;32071;49.036;9.344;2023-02-01T18:34:23;6.00;99.90
46364;DHT22;32071;49.036;9.344;2023-02-01T18:36:51;6.00;99.90
46364;DHT22;32071;49.036;9.344;2023-02-01T18:39:18;6.00;99.90
46364;DHT22;32071;49.036;9.344;2023-02-01T18:41:45;6.00;99.90
46364;DHT22;32071;49.036;9.344;2023-02-01T18:44:13;6.00;99.90